Alpine, Pennsylvania
Current Conditions -  °F | °C
As of 4:56 AM on Wednesday 22 Oct 2014 (Local Time) from KCXY Reporting Station
Overcast Overcast  
Wind Chill: 56°   Ceiling: 2500
Heat Index: 56°   Visibility: 10mi
Dew Point: 48°   Wind: 6mph
Humidity: 75%   Direction: 340°NNW
Pressure: 29.91"   Gusts: NA
Location:  40.1328°N, 76.8833°W
Report Text: KCXY 220856Z AUTO 34005KT 10SM BKN025 OVC040 13/09 A2991 RMK AO2 SLP131 T01330089 53003
Loading
Personal Weather Stations






























Interactive Weather Map
Tropical Storm Tracking
New forecast layout! Learn more

10-Day Weather Forecast

Advertisements
Track Severe Weather on mobile